sensor_id;sensor_type;location;lat;lon;timestamp;temperature;humidity
23546;DHT22;11951;52.138;4.464;2022-09-09T00:04:34;17.40;97.10
23546;DHT22;11951;52.138;4.464;2022-09-09T00:09:44;17.30;97.10
23546;DHT22;11951;52.138;4.464;2022-09-09T00:12:11;17.20;97.10
23546;DHT22;11951;52.138;4.464;2022-09-09T00:14:43;17.20;97.10
23546;DHT22;11951;52.138;4.464;2022-09-09T00:19:56;17.30;97.10
23546;DHT22;11951;52.138;4.464;2022-09-09T00:22:25;17.30;97.10
23546;DHT22;11951;52.138;4.464;2022-09-09T00:24:54;17.30;97.10
23546;DHT22;11951;52.138;4.464;2022-09-09T00:27:29;17.30;97.10
23546;DHT22;11951;52.138;4.464;2022-09-09T00:29:58;17.20;97.10
23546;DHT22;11951;52.138;4.464;2022-09-09T00:32:27;17.20;97.10
23546;DHT22;11951;52.138;4.464;2022-09-09T00:34:54;17.20;97.10
23546;DHT22;11951;52.138;4.464;2022-09-09T00:37:21;17.20;97.10
23546;DHT22;11951;52.138;4.464;2022-09-09T00:39:47;17.20;97.10
23546;DHT22;11951;52.138;4.464;2022-09-09T00:42:15;17.20;97.10
23546;DHT22;11951;52.138;4.464;2022-09-09T00:44:52;17.20;97.10
23546;DHT22;11951;52.138;4.464;2022-09-09T00:55:34;17.20;97.10
23546;DHT22;11951;52.138;4.464;2022-09-09T00:58:05;17.20;97.10
23546;DHT22;11951;52.138;4.464;2022-09-09T01:00:40;17.20;97.10
23546;DHT22;11951;52.138;4.464;2022-09-09T01:10:49;17.10;97.10
23546;DHT22;11951;52.138;4.464;2022-09-09T01:13:24;17.10;97.10
23546;DHT22;11951;52.138;4.464;2022-09-09T01:15:50;17.00;97.10
23546;DHT22;11951;52.138;4.464;2022-09-09T01:18:19;17.00;97.10
23546;DHT22;11951;52.138;4.464;2022-09-09T01:20:48;17.00;97.10
23546;DHT22;11951;52.138;4.464;2022-09-09T01:23:37;16.90;97.10
23546;DHT22;11951;52.138;4.464;2022-09-09T01:26:12;16.90;97.10
23546;DHT22;11951;52.138;4.464;2022-09-09T01:28:40;16.90;97.10
23546;DHT22;11951;52.138;4.464;2022-09-09T01:31:07;16.90;97.10
23546;DHT22;11951;52.138;4.464;2022-09-09T01:33:34;16.90;97.10
23546;DHT22;11951;52.138;4.464;2022-09-09T01:36:05;16.90;97.10
23546;DHT22;11951;52.138;4.464;2022-09-09T01:38:31;16.90;97.10
23546;DHT22;11951;52.138;4.464;2022-09-09T01:40:57;16.90;97.10
23546;DHT22;11951;52.138;4.464;2022-09-09T01:43:23;16.90;97.10
23546;DHT22;11951;52.138;4.464;2022-09-09T01:45:54;16.90;97.10
23546;DHT22;11951;52.138;4.464;2022-09-09T01:48:21;16.90;97.10
23546;DHT22;11951;52.138;4.464;2022-09-09T01:50:47;16.90;97.10
23546;DHT22;11951;52.138;4.464;2022-09-09T01:53:13;16.80;97.10
23546;DHT22;11951;52.138;4.464;2022-09-09T01:55:40;16.80;97.10
23546;DHT22;11951;52.138;4.464;2022-09-09T02:00:34;16.80;97.10
23546;DHT22;11951;52.138;4.464;2022-09-09T02:03:20;16.80;97.10
23546;DHT22;11951;52.138;4.464;2022-09-09T02:06:05;16.80;97.10
23546;DHT22;11951;52.138;4.464;2022-09-09T02:08:42;16.70;97.10
23546;DHT22;11951;52.138;4.464;2022-09-09T02:11:13;16.70;97.10
23546;DHT22;11951;52.138;4.464;2022-09-09T02:13:38;16.70;97.10
23546;DHT22;11951;52.138;4.464;2022-09-09T02:16:12;16.70;97.10
23546;DHT22;11951;52.138;4.464;2022-09-09T02:18:44;16.70;97.10
23546;DHT22;11951;52.138;4.464;2022-09-09T02:21:11;16.80;97.10
23546;DHT22;11951;52.138;4.464;2022-09-09T02:23:39;16.70;97.10
23546;DHT22;11951;52.138;4.464;2022-09-09T02:26:06;16.70;97.10
23546;DHT22;11951;52.138;4.464;2022-09-09T02:28:33;16.70;97.10
23546;DHT22;11951;52.138;4.464;2022-09-09T02:31:00;16.70;97.10
23546;DHT22;11951;52.138;4.464;2022-09-09T02:33:27;16.70;97.10
23546;DHT22;11951;52.138;4.464;2022-09-09T02:35:53;16.70;97.10
23546;DHT22;11951;52.138;4.464;2022-09-09T02:38:21;16.70;97.10
23546;DHT22;11951;52.138;4.464;2022-09-09T02:40:51;16.70;97.10
23546;DHT22;11951;52.138;4.464;2022-09-09T02:43:17;16.60;97.10
23546;DHT22;11951;52.138;4.464;2022-09-09T02:45:56;16.60;97.10
23546;DHT22;11951;52.138;4.464;2022-09-09T02:51:35;16.60;97.10
23546;DHT22;11951;52.138;4.464;2022-09-09T02:54:27;16.60;97.10
23546;DHT22;11951;52.138;4.464;2022-09-09T02:56:46;16.60;97.10
23546;DHT22;11951;52.138;4.464;2022-09-09T02:59:13;16.50;97.10
23546;DHT22;11951;52.138;4.464;2022-09-09T03:01:38;16.40;97.10
23546;DHT22;11951;52.138;4.464;2022-09-09T03:04:05;16.40;97.10
23546;DHT22;11951;52.138;4.464;2022-09-09T03:06:30;16.50;97.10
23546;DHT22;11951;52.138;4.464;2022-09-09T03:08:56;16.50;97.10
23546;DHT22;11951;52.138;4.464;2022-09-09T03:11:26;16.50;97.10
23546;DHT22;11951;52.138;4.464;2022-09-09T03:13:54;16.50;97.10
23546;DHT22;11951;52.138;4.464;2022-09-09T03:16:21;16.50;97.10
23546;DHT22;11951;52.138;4.464;2022-09-09T03:18:47;16.50;97.10
23546;DHT22;11951;52.138;4.464;2022-09-09T03:21:13;16.50;97.10
23546;DHT22;11951;52.138;4.464;2022-09-09T03:23:38;16.50;97.10
23546;DHT22;11951;52.138;4.464;2022-09-09T03:26:04;16.50;97.10
23546;DHT22;11951;52.138;4.464;2022-09-09T03:28:30;16.50;97.10
23546;DHT22;11951;52.138;4.464;2022-09-09T03:31:00;16.50;97.10
23546;DHT22;11951;52.138;4.464;2022-09-09T03:33:25;16.40;97.10
23546;DHT22;11951;52.138;4.464;2022-09-09T03:35:51;16.40;97.10
23546;DHT22;11951;52.138;4.464;2022-09-09T03:38:16;16.50;97.10
23546;DHT22;11951;52.138;4.464;2022-09-09T03:40:52;16.50;97.10
23546;DHT22;11951;52.138;4.464;2022-09-09T03:43:20;16.50;97.10
23546;DHT22;11951;52.138;4.464;2022-09-09T03:45:46;16.50;97.10
23546;DHT22;11951;52.138;4.464;2022-09-09T03:48:16;16.40;97.10
23546;DHT22;11951;52.138;4.464;2022-09-09T03:50:52;16.40;97.10
23546;DHT22;11951;52.138;4.464;2022-09-09T03:53:18;16.40;97.10
23546;DHT22;11951;52.138;4.464;2022-09-09T03:55:44;16.30;97.10
23546;DHT22;11951;52.138;4.464;2022-09-09T03:58:11;16.30;97.10
23546;DHT22;11951;52.138;4.464;2022-09-09T04:00:37;16.30;97.10
23546;DHT22;11951;52.138;4.464;2022-09-09T04:03:05;16.30;97.10
23546;DHT22;11951;52.138;4.464;2022-09-09T04:05:31;16.30;97.10
23546;DHT22;11951;52.138;4.464;2022-09-09T04:07:59;16.30;97.10
23546;DHT22;11951;52.138;4.464;2022-09-09T04:10:24;16.40;97.10
23546;DHT22;11951;52.138;4.464;2022-09-09T04:12:50;16.40;97.10
23546;DHT22;11951;52.138;4.464;2022-09-09T04:15:15;16.30;97.10
23546;DHT22;11951;52.138;4.464;2022-09-09T04:17:41;16.30;97.10
23546;DHT22;11951;52.138;4.464;2022-09-09T04:20:06;16.30;97.10
23546;DHT22;11951;52.138;4.464;2022-09-09T04:22:36;16.30;97.10
23546;DHT22;11951;52.138;4.464;2022-09-09T04:25:04;16.30;97.10
23546;DHT22;11951;52.138;4.464;2022-09-09T04:27:31;16.30;97.10
23546;DHT22;11951;52.138;4.464;2022-09-09T04:29:56;16.30;97.10
23546;DHT22;11951;52.138;4.464;2022-09-09T04:32:22;16.30;97.10
23546;DHT22;11951;52.138;4.464;2022-09-09T04:34:48;16.30;97.10
23546;DHT22;11951;52.138;4.464;2022-09-09T04:37:14;16.40;97.10
23546;DHT22;11951;52.138;4.464;2022-09-09T04:39:39;16.40;97.10
23546;DHT22;11951;52.138;4.464;2022-09-09T04:42:05;16.30;97.10
23546;DHT22;11951;52.138;4.464;2022-09-09T04:44:30;16.30;97.10
23546;DHT22;11951;52.138;4.464;2022-09-09T04:46:56;16.30;97.10
23546;DHT22;11951;52.138;4.464;2022-09-09T04:49:22;16.30;97.10
23546;DHT22;11951;52.138;4.464;2022-09-09T04:51:50;16.20;97.10
23546;DHT22;11951;52.138;4.464;2022-09-09T04:54:17;16.20;97.10
23546;DHT22;11951;52.138;4.464;2022-09-09T04:56:42;16.30;97.10
23546;DHT22;11951;52.138;4.464;2022-09-09T04:59:08;16.30;97.10
23546;DHT22;11951;52.138;4.464;2022-09-09T05:01:35;16.30;97.10
23546;DHT22;11951;52.138;4.464;2022-09-09T05:04:01;16.30;97.10
23546;DHT22;11951;52.138;4.464;2022-09-09T05:06:28;16.30;97.10
23546;DHT22;11951;52.138;4.464;2022-09-09T05:08:55;16.40;97.10
23546;DHT22;11951;52.138;4.464;2022-09-09T05:11:21;16.40;97.10
23546;DHT22;11951;52.138;4.464;2022-09-09T05:13:51;16.30;97.10
23546;DHT22;11951;52.138;4.464;2022-09-09T05:16:17;16.30;97.10
23546;DHT22;11951;52.138;4.464;2022-09-09T05:18:43;16.30;97.10
23546;DHT22;11951;52.138;4.464;2022-09-09T05:21:09;16.30;97.10
23546;DHT22;11951;52.138;4.464;2022-09-09T05:23:35;16.20;97.10
23546;DHT22;11951;52.138;4.464;2022-09-09T05:26:01;16.20;97.10
23546;DHT22;11951;52.138;4.464;2022-09-09T05:28:26;16.20;97.10
23546;DHT22;11951;52.138;4.464;2022-09-09T05:31:02;16.20;97.10
23546;DHT22;11951;52.138;4.464;2022-09-09T05:33:30;16.20;97.10
23546;DHT22;11951;52.138;4.464;2022-09-09T05:36:00;16.20;97.10
23546;DHT22;11951;52.138;4.464;2022-09-09T05:38:26;16.20;97.10
23546;DHT22;11951;52.138;4.464;2022-09-09T05:40:53;16.20;97.10
23546;DHT22;11951;52.138;4.464;2022-09-09T05:43:22;16.30;97.10
23546;DHT22;11951;52.138;4.464;2022-09-09T05:45:48;16.40;97.10
23546;DHT22;11951;52.138;4.464;2022-09-09T05:48:14;16.40;97.10
23546;DHT22;11951;52.138;4.464;2022-09-09T05:50:41;16.50;97.10
23546;DHT22;11951;52.138;4.464;2022-09-09T05:53:08;16.50;97.10
23546;DHT22;11951;52.138;4.464;2022-09-09T05:55:33;16.50;97.10
23546;DHT22;11951;52.138;4.464;2022-09-09T05:57:59;16.60;97.10
23546;DHT22;11951;52.138;4.464;2022-09-09T06:00:25;16.60;97.10
23546;DHT22;11951;52.138;4.464;2022-09-09T06:02:51;16.60;97.10
23546;DHT22;11951;52.138;4.464;2022-09-09T06:05:20;16.70;97.10
23546;DHT22;11951;52.138;4.464;2022-09-09T06:07:48;16.70;97.10
23546;DHT22;11951;52.138;4.464;2022-09-09T06:10:13;16.70;97.10
23546;DHT22;11951;52.138;4.464;2022-09-09T06:12:39;16.80;97.10
23546;DHT22;11951;52.138;4.464;2022-09-09T06:15:05;16.90;97.10
23546;DHT22;11951;52.138;4.464;2022-09-09T06:17:30;17.00;97.10
23546;DHT22;11951;52.138;4.464;2022-09-09T06:19:56;17.00;97.10
23546;DHT22;11951;52.138;4.464;2022-09-09T06:22:22;17.00;97.10
23546;DHT22;11951;52.138;4.464;2022-09-09T06:24:48;17.00;97.10
23546;DHT22;11951;52.138;4.464;2022-09-09T06:27:13;17.00;97.10
23546;DHT22;11951;52.138;4.464;2022-09-09T06:29:39;17.10;97.10
23546;DHT22;11951;52.138;4.464;2022-09-09T06:32:04;17.10;97.10
23546;DHT22;11951;52.138;4.464;2022-09-09T06:34:30;17.00;97.10
23546;DHT22;11951;52.138;4.464;2022-09-09T06:36:55;17.00;97.10
23546;DHT22;11951;52.138;4.464;2022-09-09T06:39:22;17.10;97.10
23546;DHT22;11951;52.138;4.464;2022-09-09T06:41:48;17.10;97.10
23546;DHT22;11951;52.138;4.464;2022-09-09T06:44:15;17.20;97.10
23546;DHT22;11951;52.138;4.464;2022-09-09T06:46:40;17.20;97.10
23546;DHT22;11951;52.138;4.464;2022-09-09T06:49:07;17.30;97.10
23546;DHT22;11951;52.138;4.464;2022-09-09T06:51:34;17.30;97.10
23546;DHT22;11951;52.138;4.464;2022-09-09T06:54:00;17.40;97.10
23546;DHT22;11951;52.138;4.464;2022-09-09T06:58:53;17.40;97.10
23546;DHT22;11951;52.138;4.464;2022-09-09T07:01:23;17.50;97.10
23546;DHT22;11951;52.138;4.464;2022-09-09T07:03:49;17.50;97.10
23546;DHT22;11951;52.138;4.464;2022-09-09T07:06:19;17.50;97.10
23546;DHT22;11951;52.138;4.464;2022-09-09T07:08:52;17.50;97.10
23546;DHT22;11951;52.138;4.464;2022-09-09T07:11:19;17.50;97.10
23546;DHT22;11951;52.138;4.464;2022-09-09T07:13:45;17.50;97.10
23546;DHT22;11951;52.138;4.464;2022-09-09T07:16:11;17.60;97.10
23546;DHT22;11951;52.138;4.464;2022-09-09T07:18:38;17.70;97.10
23546;DHT22;11951;52.138;4.464;2022-09-09T07:21:04;17.70;97.10
23546;DHT22;11951;52.138;4.464;2022-09-09T07:23:30;17.80;97.10
23546;DHT22;11951;52.138;4.464;2022-09-09T07:25:56;17.70;97.10
23546;DHT22;11951;52.138;4.464;2022-09-09T07:28:22;17.70;97.10
23546;DHT22;11951;52.138;4.464;2022-09-09T07:31:00;17.70;97.10
23546;DHT22;11951;52.138;4.464;2022-09-09T07:33:27;17.80;97.10
23546;DHT22;11951;52.138;4.464;2022-09-09T07:36:02;17.70;97.10
23546;DHT22;11951;52.138;4.464;2022-09-09T07:38:28;17.80;97.10
23546;DHT22;11951;52.138;4.464;2022-09-09T07:41:01;17.80;97.10
23546;DHT22;11951;52.138;4.464;2022-09-09T07:43:27;17.80;97.10
23546;DHT22;11951;52.138;4.464;2022-09-09T07:45:59;17.70;97.10
23546;DHT22;11951;52.138;4.464;2022-09-09T07:48:26;17.70;97.10
23546;DHT22;11951;52.138;4.464;2022-09-09T07:50:52;17.60;97.10
23546;DHT22;11951;52.138;4.464;2022-09-09T07:53:17;17.60;97.10
23546;DHT22;11951;52.138;4.464;2022-09-09T07:55:45;17.60;97.10
23546;DHT22;11951;52.138;4.464;2022-09-09T07:58:10;17.60;97.10
23546;DHT22;11951;52.138;4.464;2022-09-09T08:00:36;17.60;97.10
23546;DHT22;11951;52.138;4.464;2022-09-09T08:03:01;17.60;97.10
23546;DHT22;11951;52.138;4.464;2022-09-09T08:05:27;17.60;97.10
23546;DHT22;11951;52.138;4.464;2022-09-09T08:07:52;17.60;97.10
23546;DHT22;11951;52.138;4.464;2022-09-09T08:10:18;17.60;97.10
23546;DHT22;11951;52.138;4.464;2022-09-09T08:12:43;17.70;97.10
23546;DHT22;11951;52.138;4.464;2022-09-09T08:15:09;17.70;97.10
23546;DHT22;11951;52.138;4.464;2022-09-09T08:17:34;17.80;97.10
23546;DHT22;11951;52.138;4.464;2022-09-09T08:20:00;17.90;97.10
23546;DHT22;11951;52.138;4.464;2022-09-09T08:22:31;17.90;97.10
23546;DHT22;11951;52.138;4.464;2022-09-09T08:24:56;18.00;97.10
23546;DHT22;11951;52.138;4.464;2022-09-09T08:27:22;18.00;97.10
23546;DHT22;11951;52.138;4.464;2022-09-09T08:29:48;18.00;97.10
23546;DHT22;11951;52.138;4.464;2022-09-09T08:32:14;18.00;97.10
23546;DHT22;11951;52.138;4.464;2022-09-09T08:34:39;18.00;97.10
23546;DHT22;11951;52.138;4.464;2022-09-09T08:37:05;18.00;97.10
23546;DHT22;11951;52.138;4.464;2022-09-09T08:39:31;18.10;97.10
23546;DHT22;11951;52.138;4.464;2022-09-09T08:44:55;18.10;97.10
23546;DHT22;11951;52.138;4.464;2022-09-09T08:50:07;18.10;97.10
23546;DHT22;11951;52.138;4.464;2022-09-09T08:53:11;18.10;97.10
23546;DHT22;11951;52.138;4.464;2022-09-09T08:55:37;18.10;97.10
23546;DHT22;11951;52.138;4.464;2022-09-09T08:58:15;18.10;97.10
23546;DHT22;11951;52.138;4.464;2022-09-09T09:00:47;18.20;97.10
23546;DHT22;11951;52.138;4.464;2022-09-09T09:11:58;18.00;97.10
23546;DHT22;11951;52.138;4.464;2022-09-09T09:14:27;18.00;97.10
23546;DHT22;11951;52.138;4.464;2022-09-09T09:16:55;18.00;97.10
23546;DHT22;11951;52.138;4.464;2022-09-09T09:19:21;18.10;97.10
23546;DHT22;11951;52.138;4.464;2022-09-09T09:22:05;18.10;97.10
23546;DHT22;11951;52.138;4.464;2022-09-09T09:30:18;17.70;97.10
23546;DHT22;11951;52.138;4.464;2022-09-09T09:32:49;17.50;97.10
23546;DHT22;11951;52.138;4.464;2022-09-09T09:35:16;17.40;97.10
23546;DHT22;11951;52.138;4.464;2022-09-09T09:37:41;17.30;97.10
23546;DHT22;11951;52.138;4.464;2022-09-09T09:40:13;17.30;97.10
23546;DHT22;11951;52.138;4.464;2022-09-09T09:45:16;17.40;97.10
23546;DHT22;11951;52.138;4.464;2022-09-09T09:47:43;17.50;97.10
23546;DHT22;11951;52.138;4.464;2022-09-09T09:50:16;17.60;97.10
23546;DHT22;11951;52.138;4.464;2022-09-09T09:52:42;17.60;97.10
23546;DHT22;11951;52.138;4.464;2022-09-09T09:55:12;17.70;97.10
23546;DHT22;11951;52.138;4.464;2022-09-09T09:57:38;17.70;97.10
23546;DHT22;11951;52.138;4.464;2022-09-09T10:00:12;17.70;97.10
23546;DHT22;11951;52.138;4.464;2022-09-09T10:02:39;17.60;97.10
23546;DHT22;11951;52.138;4.464;2022-09-09T10:05:13;17.60;97.10
23546;DHT22;11951;52.138;4.464;2022-09-09T10:07:38;17.60;97.10
23546;DHT22;11951;52.138;4.464;2022-09-09T10:10:04;17.70;97.10
23546;DHT22;11951;52.138;4.464;2022-09-09T10:12:34;17.90;97.10
23546;DHT22;11951;52.138;4.464;2022-09-09T10:22:50;17.80;97.10
23546;DHT22;11951;52.138;4.464;2022-09-09T10:30:34;17.70;97.10
23546;DHT22;11951;52.138;4.464;2022-09-09T10:36:12;17.60;97.10
23546;DHT22;11951;52.138;4.464;2022-09-09T10:38:39;17.60;97.10
23546;DHT22;11951;52.138;4.464;2022-09-09T10:41:11;17.60;97.10
23546;DHT22;11951;52.138;4.464;2022-09-09T10:54:24;17.50;97.10
23546;DHT22;11951;52.138;4.464;2022-09-09T10:56:56;17.60;97.10
23546;DHT22;11951;52.138;4.464;2022-09-09T10:59:24;17.60;97.10
23546;DHT22;11951;52.138;4.464;2022-09-09T11:07:09;18.10;97.10
23546;DHT22;11951;52.138;4.464;2022-09-09T11:09:37;18.20;97.10
23546;DHT22;11951;52.138;4.464;2022-09-09T11:12:04;18.20;97.10
23546;DHT22;11951;52.138;4.464;2022-09-09T11:16:58;18.20;97.10
23546;DHT22;11951;52.138;4.464;2022-09-09T11:27:22;18.20;97.10
23546;DHT22;11951;52.138;4.464;2022-09-09T11:30:02;18.20;97.10
23546;DHT22;11951;52.138;4.464;2022-09-09T11:35:33;18.30;97.10
23546;DHT22;11951;52.138;4.464;2022-09-09T11:40:34;18.20;97.10
23546;DHT22;11951;52.138;4.464;2022-09-09T11:43:04;18.20;97.10
23546;DHT22;11951;52.138;4.464;2022-09-09T11:45:31;18.20;97.10
23546;DHT22;11951;52.138;4.464;2022-09-09T11:47:59;18.10;97.10
23546;DHT22;11951;52.138;4.464;2022-09-09T11:52:50;18.00;97.10
23546;DHT22;11951;52.138;4.464;2022-09-09T11:55:29;18.00;97.10
23546;DHT22;11951;52.138;4.464;2022-09-09T11:57:59;17.90;97.10
23546;DHT22;11951;52.138;4.464;2022-09-09T12:00:33;17.90;97.10
23546;DHT22;11951;52.138;4.464;2022-09-09T12:02:59;17.80;97.10
23546;DHT22;11951;52.138;4.464;2022-09-09T12:05:35;17.80;97.10
23546;DHT22;11951;52.138;4.464;2022-09-09T12:08:01;17.90;97.10
23546;DHT22;11951;52.138;4.464;2022-09-09T12:10:41;17.90;97.10
23546;DHT22;11951;52.138;4.464;2022-09-09T12:15:35;18.10;97.10
23546;DHT22;11951;52.138;4.464;2022-09-09T12:18:14;18.20;97.10
23546;DHT22;11951;52.138;4.464;2022-09-09T12:20:40;18.30;97.10
23546;DHT22;11951;52.138;4.464;2022-09-09T12:31:02;18.40;97.10
23546;DHT22;11951;52.138;4.464;2022-09-09T12:33:38;18.40;97.10
23546;DHT22;11951;52.138;4.464;2022-09-09T12:36:12;18.40;97.10
23546;DHT22;11951;52.138;4.464;2022-09-09T12:38:39;18.50;97.10
23546;DHT22;11951;52.138;4.464;2022-09-09T12:41:05;18.40;97.10
23546;DHT22;11951;52.138;4.464;2022-09-09T12:43:31;18.40;97.10
23546;DHT22;11951;52.138;4.464;2022-09-09T12:46:01;18.40;97.10
23546;DHT22;11951;52.138;4.464;2022-09-09T12:48:36;18.40;97.10
23546;DHT22;11951;52.138;4.464;2022-09-09T12:51:02;18.40;97.10
23546;DHT22;11951;52.138;4.464;2022-09-09T12:53:32;18.50;97.10
23546;DHT22;11951;52.138;4.464;2022-09-09T12:56:00;18.60;97.10
23546;DHT22;11951;52.138;4.464;2022-09-09T12:58:28;18.60;97.10
23546;DHT22;11951;52.138;4.464;2022-09-09T13:00:58;18.60;97.10
23546;DHT22;11951;52.138;4.464;2022-09-09T13:03:25;18.70;97.10
23546;DHT22;11951;52.138;4.464;2022-09-09T13:05:51;18.70;97.10
23546;DHT22;11951;52.138;4.464;2022-09-09T13:08:18;18.70;97.10
23546;DHT22;11951;52.138;4.464;2022-09-09T13:13:28;18.70;97.10
23546;DHT22;11951;52.138;4.464;2022-09-09T13:16:01;18.70;97.10
23546;DHT22;11951;52.138;4.464;2022-09-09T13:18:31;18.60;97.10
23546;DHT22;11951;52.138;4.464;2022-09-09T13:20:58;18.70;97.10
23546;DHT22;11951;52.138;4.464;2022-09-09T13:23:26;18.80;97.10
23546;DHT22;11951;52.138;4.464;2022-09-09T13:25:52;18.90;97.10
23546;DHT22;11951;52.138;4.464;2022-09-09T13:28:20;18.90;97.10
23546;DHT22;11951;52.138;4.464;2022-09-09T13:31:19;18.90;97.10
23546;DHT22;11951;52.138;4.464;2022-09-09T13:33:37;18.70;97.10
23546;DHT22;11951;52.138;4.464;2022-09-09T13:36:09;18.70;97.10
23546;DHT22;11951;52.138;4.464;2022-09-09T13:38:36;18.80;97.10
23546;DHT22;11951;52.138;4.464;2022-09-09T13:43:42;18.80;97.10
23546;DHT22;11951;52.138;4.464;2022-09-09T13:49:00;18.70;97.10
23546;DHT22;11951;52.138;4.464;2022-09-09T13:51:35;18.60;97.10
23546;DHT22;11951;52.138;4.464;2022-09-09T13:54:03;18.50;97.10
23546;DHT22;11951;52.138;4.464;2022-09-09T13:56:28;18.40;97.10
23546;DHT22;11951;52.138;4.464;2022-09-09T13:58:54;18.30;97.10
23546;DHT22;11951;52.138;4.464;2022-09-09T14:01:19;18.10;97.10
23546;DHT22;11951;52.138;4.464;2022-09-09T14:03:45;18.00;97.10
23546;DHT22;11951;52.138;4.464;2022-09-09T14:06:11;18.00;97.10
23546;DHT22;11951;52.138;4.464;2022-09-09T14:08:36;17.80;97.10
23546;DHT22;11951;52.138;4.464;2022-09-09T14:11:05;17.70;97.10
23546;DHT22;11951;52.138;4.464;2022-09-09T14:13:31;17.70;97.10
23546;DHT22;11951;52.138;4.464;2022-09-09T14:15:57;17.60;97.10
23546;DHT22;11951;52.138;4.464;2022-09-09T14:18:22;17.70;97.10
23546;DHT22;11951;52.138;4.464;2022-09-09T14:20:48;17.70;97.10
23546;DHT22;11951;52.138;4.464;2022-09-09T14:23:15;17.60;97.10
23546;DHT22;11951;52.138;4.464;2022-09-09T14:25:41;17.60;97.10
23546;DHT22;11951;52.138;4.464;2022-09-09T14:28:08;17.60;97.10
23546;DHT22;11951;52.138;4.464;2022-09-09T14:30:34;17.70;97.10
23546;DHT22;11951;52.138;4.464;2022-09-09T14:33:00;17.80;97.10
23546;DHT22;11951;52.138;4.464;2022-09-09T14:35:25;18.00;97.10
23546;DHT22;11951;52.138;4.464;2022-09-09T14:37:51;18.20;97.10
23546;DHT22;11951;52.138;4.464;2022-09-09T14:40:16;18.40;97.10
23546;DHT22;11951;52.138;4.464;2022-09-09T14:42:42;18.60;97.10
23546;DHT22;11951;52.138;4.464;2022-09-09T14:45:08;18.80;97.10
23546;DHT22;11951;52.138;4.464;2022-09-09T14:47:33;19.20;97.10
23546;DHT22;11951;52.138;4.464;2022-09-09T14:49:59;19.50;97.10
23546;DHT22;11951;52.138;4.464;2022-09-09T14:52:26;19.70;97.10
23546;DHT22;11951;52.138;4.464;2022-09-09T14:54:51;19.90;97.10
23546;DHT22;11951;52.138;4.464;2022-09-09T14:57:17;19.80;97.10
23546;DHT22;11951;52.138;4.464;2022-09-09T14:59:42;19.70;97.10
23546;DHT22;11951;52.138;4.464;2022-09-09T15:02:08;19.50;97.10
23546;DHT22;11951;52.138;4.464;2022-09-09T15:04:34;19.30;97.10
23546;DHT22;11951;52.138;4.464;2022-09-09T15:07:00;19.20;97.10
23546;DHT22;11951;52.138;4.464;2022-09-09T15:09:26;19.20;97.10
23546;DHT22;11951;52.138;4.464;2022-09-09T15:11:51;19.20;97.10
23546;DHT22;11951;52.138;4.464;2022-09-09T15:14:17;19.10;97.10
23546;DHT22;11951;52.138;4.464;2022-09-09T15:16:42;19.10;97.10
23546;DHT22;11951;52.138;4.464;2022-09-09T15:19:08;19.10;97.10
23546;DHT22;11951;52.138;4.464;2022-09-09T15:21:35;19.00;97.10
23546;DHT22;11951;52.138;4.464;2022-09-09T15:24:00;19.00;97.10
23546;DHT22;11951;52.138;4.464;2022-09-09T15:26:26;19.00;97.10
23546;DHT22;11951;52.138;4.464;2022-09-09T15:28:52;18.90;97.10
23546;DHT22;11951;52.138;4.464;2022-09-09T15:31:19;18.80;97.10
23546;DHT22;11951;52.138;4.464;2022-09-09T15:38:39;18.50;97.10
23546;DHT22;11951;52.138;4.464;2022-09-09T15:41:05;18.50;97.10
23546;DHT22;11951;52.138;4.464;2022-09-09T15:43:31;18.40;97.10
23546;DHT22;11951;52.138;4.464;2022-09-09T15:45:58;18.40;97.10
23546;DHT22;11951;52.138;4.464;2022-09-09T15:48:30;18.40;97.10
23546;DHT22;11951;52.138;4.464;2022-09-09T15:51:01;18.40;97.10
23546;DHT22;11951;52.138;4.464;2022-09-09T15:53:28;18.40;97.10
23546;DHT22;11951;52.138;4.464;2022-09-09T15:56:00;18.50;97.10
23546;DHT22;11951;52.138;4.464;2022-09-09T15:58:35;18.60;97.10
23546;DHT22;11951;52.138;4.464;2022-09-09T16:01:07;18.70;97.10
23546;DHT22;11951;52.138;4.464;2022-09-09T16:03:36;18.80;97.10
23546;DHT22;11951;52.138;4.464;2022-09-09T16:06:03;18.90;97.10
23546;DHT22;11951;52.138;4.464;2022-09-09T16:08:37;19.00;97.10
23546;DHT22;11951;52.138;4.464;2022-09-09T16:11:13;19.10;97.10
23546;DHT22;11951;52.138;4.464;2022-09-09T16:13:40;19.10;97.10
23546;DHT22;11951;52.138;4.464;2022-09-09T16:16:06;19.10;97.10
23546;DHT22;11951;52.138;4.464;2022-09-09T16:18:45;19.10;97.10
23546;DHT22;11951;52.138;4.464;2022-09-09T16:21:15;19.10;97.10
23546;DHT22;11951;52.138;4.464;2022-09-09T16:23:41;19.10;97.10
23546;DHT22;11951;52.138;4.464;2022-09-09T16:26:08;19.00;97.10
23546;DHT22;11951;52.138;4.464;2022-09-09T16:28:35;18.90;97.10
23546;DHT22;11951;52.138;4.464;2022-09-09T16:31:03;18.90;97.10
23546;DHT22;11951;52.138;4.464;2022-09-09T16:33:29;19.00;97.10
23546;DHT22;11951;52.138;4.464;2022-09-09T16:35:55;19.20;97.10
23546;DHT22;11951;52.138;4.464;2022-09-09T16:38:21;19.20;97.10
23546;DHT22;11951;52.138;4.464;2022-09-09T16:40:46;19.20;97.10
23546;DHT22;11951;52.138;4.464;2022-09-09T16:43:13;19.10;97.10
23546;DHT22;11951;52.138;4.464;2022-09-09T16:45:42;19.10;97.10
23546;DHT22;11951;52.138;4.464;2022-09-09T16:48:08;19.20;97.10
23546;DHT22;11951;52.138;4.464;2022-09-09T16:50:34;19.20;97.10
23546;DHT22;11951;52.138;4.464;2022-09-09T16:52:59;19.20;97.10
23546;DHT22;11951;52.138;4.464;2022-09-09T16:55:27;19.20;97.10
23546;DHT22;11951;52.138;4.464;2022-09-09T16:57:52;19.10;97.10
23546;DHT22;11951;52.138;4.464;2022-09-09T17:00:19;19.10;97.10
23546;DHT22;11951;52.138;4.464;2022-09-09T17:02:44;19.10;97.10
23546;DHT22;11951;52.138;4.464;2022-09-09T17:05:10;19.10;97.10
23546;DHT22;11951;52.138;4.464;2022-09-09T17:07:36;19.10;97.10
23546;DHT22;11951;52.138;4.464;2022-09-09T17:10:02;19.10;97.10
23546;DHT22;11951;52.138;4.464;2022-09-09T17:12:27;19.10;97.10
23546;DHT22;11951;52.138;4.464;2022-09-09T17:14:53;19.10;97.10
23546;DHT22;11951;52.138;4.464;2022-09-09T17:17:20;19.10;97.10
23546;DHT22;11951;52.138;4.464;2022-09-09T17:19:46;19.10;97.10
23546;DHT22;11951;52.138;4.464;2022-09-09T17:22:12;18.90;97.10
23546;DHT22;11951;52.138;4.464;2022-09-09T17:24:37;18.80;97.10
23546;DHT22;11951;52.138;4.464;2022-09-09T17:27:04;18.80;97.10
23546;DHT22;11951;52.138;4.464;2022-09-09T17:29:29;18.70;97.10
23546;DHT22;11951;52.138;4.464;2022-09-09T17:31:55;18.70;97.10
23546;DHT22;11951;52.138;4.464;2022-09-09T17:34:21;18.70;97.10
23546;DHT22;11951;52.138;4.464;2022-09-09T17:36:47;18.60;97.10
23546;DHT22;11951;52.138;4.464;2022-09-09T17:39:13;18.60;97.10
23546;DHT22;11951;52.138;4.464;2022-09-09T17:41:39;18.50;97.10
23546;DHT22;11951;52.138;4.464;2022-09-09T17:44:05;18.40;97.10